Time;durP1;ratioP1;P1;durP2;ratioP2;P2;SDS_P1;SDS_P2;PMS_P1;PMS_P2;Temp;Humidity;BMP_temperature;BMP_pressure;BME280_temperature;BME280_humidity;BME280_pressure;Samples;Min_cycle;Max_cycle;Signal;HPM_P1;HPM_P2
2021/01/07 00:01:01;;;;;;;2.90;2.70;;;2.70;1.00;;;;;;4952684;28;20211;-71
2021/01/07 00:03:38;;;;;;;2.83;2.63;;;2.70;1.00;;;;;;4944684;28;20241;-73
2021/01/07 00:06:09;;;;;;;4.20;3.80;;;2.70;1.00;;;;;;4952781;28;20252;-71
2021/01/07 00:08:36;;;;;;;4.53;4.10;;;2.80;1.00;;;;;;4949218;28;20220;-71
2021/01/07 00:11:04;;;;;;;3.65;3.35;;;2.80;1.00;;;;;;4953809;28;20213;-72
2021/01/07 00:13:31;;;;;;;3.60;3.30;;;2.90;1.00;;;;;;4951953;28;20245;-73
2021/01/07 00:16:00;;;;;;;4.20;3.90;;;2.90;1.00;;;;;;4945596;28;20479;-72
2021/01/07 00:18:28;;;;;;;3.42;3.13;;;2.90;1.00;;;;;;4955472;28;20684;-71
2021/01/07 00:20:56;;;;;;;3.90;3.60;;;2.90;1.00;;;;;;4952170;28;20213;-71
2021/01/07 00:23:23;;;;;;;3.65;3.35;;;3.00;1.00;;;;;;4951637;28;20228;-72
2021/01/07 00:25:53;;;;;;;3.13;2.80;;;3.00;1.00;;;;;;4950835;28;20299;-72
2021/01/07 00:28:21;;;;;;;4.35;3.33;;;2.90;1.00;;;;;;4963076;28;20303;-72
2021/01/07 00:30:49;;;;;;;3.95;3.28;;;2.80;1.00;;;;;;4961967;28;20311;-72
2021/01/07 00:33:18;;;;;;;2.67;2.45;;;2.70;1.00;;;;;;4950738;28;20235;-72
2021/01/07 00:35:46;;;;;;;4.28;3.95;;;2.60;1.00;;;;;;4942318;28;20304;-73
2021/01/07 00:38:13;;;;;;;3.30;2.88;;;2.50;1.00;;;;;;4949181;28;20255;-71
2021/01/07 00:40:40;;;;;;;3.85;3.40;;;2.60;1.00;;;;;;4955634;28;20580;-71
2021/01/07 00:43:07;;;;;;;3.03;2.83;;;2.60;1.00;;;;;;4950811;28;20231;-75
2021/01/07 00:45:34;;;;;;;3.83;2.90;;;2.60;1.00;;;;;;4950538;28;20628;-70
2021/01/07 00:48:02;;;;;;;6.13;2.80;;;2.60;1.00;;;;;;4949978;28;20241;-71
2021/01/07 00:50:30;;;;;;;3.47;2.83;;;2.60;1.00;;;;;;4962358;28;20226;-70
2021/01/07 00:52:57;;;;;;;3.50;2.95;;;2.70;1.00;;;;;;4952663;28;20235;-72
2021/01/07 00:55:24;;;;;;;4.28;3.25;;;2.70;1.00;;;;;;4949497;28;20703;-72
2021/01/07 00:57:51;;;;;;;2.85;2.60;;;2.70;1.00;;;;;;4950333;28;20211;-72
2021/01/07 01:00:19;;;;;;;2.50;2.40;;;2.60;1.00;;;;;;4953128;28;20232;-72
2021/01/07 01:02:47;;;;;;;2.42;2.22;;;2.60;1.00;;;;;;4947777;28;20268;-72
2021/01/07 01:05:15;;;;;;;2.15;2.05;;;2.50;1.00;;;;;;4954855;28;20218;-73
2021/01/07 01:07:43;;;;;;;3.42;3.13;;;2.40;1.00;;;;;;4951135;28;20233;-70
2021/01/07 01:10:12;;;;;;;4.93;2.90;;;2.30;1.00;;;;;;4954272;28;20208;-70
2021/01/07 01:12:39;;;;;;;2.22;2.00;;;2.40;1.00;;;;;;4949514;28;20249;-71
2021/01/07 01:15:09;;;;;;;3.60;2.50;;;2.50;1.00;;;;;;4948798;28;20215;-71
2021/01/07 01:17:37;;;;;;;2.70;2.47;;;2.60;1.00;;;;;;4948945;28;21802;-72
2021/01/07 01:20:06;;;;;;;3.60;2.88;;;2.70;1.00;;;;;;4941243;28;20214;-73
2021/01/07 01:22:33;;;;;;;3.83;3.10;;;2.70;1.00;;;;;;4947226;28;20296;-72
2021/01/07 01:25:07;;;;;;;3.38;2.90;;;2.70;1.00;;;;;;4944615;28;20543;-71
2021/01/07 01:27:35;;;;;;;3.17;2.88;;;2.70;1.00;;;;;;4955385;28;20231;-71
2021/01/07 01:30:04;;;;;;;3.25;2.75;;;2.60;1.00;;;;;;4939959;28;20212;-72
2021/01/07 01:32:31;;;;;;;3.35;3.08;;;2.60;1.00;;;;;;4947271;28;20228;-71
2021/01/07 01:34:58;;;;;;;2.97;2.35;;;2.60;1.00;;;;;;4947579;28;20833;-71
2021/01/07 01:37:25;;;;;;;3.10;2.83;;;2.50;1.00;;;;;;4947792;28;20283;-71
2021/01/07 01:39:53;;;;;;;3.10;2.80;;;2.50;1.00;;;;;;4940471;28;20211;-70
2021/01/07 01:42:24;;;;;;;2.42;2.22;;;2.40;1.00;;;;;;4943432;28;20215;-74
2021/01/07 01:44:52;;;;;;;3.28;2.25;;;2.50;1.00;;;;;;4950602;28;20213;-71
2021/01/07 01:47:19;;;;;;;3.08;2.70;;;2.40;1.00;;;;;;4948679;28;20243;-70
2021/01/07 01:49:47;;;;;;;2.60;2.40;;;2.50;1.00;;;;;;4951616;28;20219;-72
2021/01/07 01:52:16;;;;;;;2.38;2.17;;;2.30;1.00;;;;;;4948055;28;20216;-71
2021/01/07 01:54:43;;;;;;;3.53;2.47;;;2.20;1.00;;;;;;4952817;28;20211;-71
2021/01/07 01:57:12;;;;;;;2.20;2.00;;;2.20;1.00;;;;;;4943606;28;20710;-72
2021/01/07 01:59:41;;;;;;;2.70;2.38;;;2.10;1.00;;;;;;4949108;28;20228;-70
2021/01/07 02:02:09;;;;;;;2.05;1.85;;;2.00;1.00;;;;;;4946708;28;20222;-72
2021/01/07 02:04:37;;;;;;;1.85;1.75;;;2.00;1.00;;;;;;4953078;28;20275;-73
2021/01/07 02:07:07;;;;;;;1.90;1.80;;;1.90;1.00;;;;;;4947729;28;20235;-71
2021/01/07 02:09:34;;;;;;;2.08;1.98;;;1.80;1.00;;;;;;4945794;28;20218;-72
2021/01/07 02:12:02;;;;;;;2.20;2.10;;;1.80;1.00;;;;;;4948921;28;20333;-71
2021/01/07 02:14:29;;;;;;;2.20;2.00;;;1.70;1.00;;;;;;4947716;28;20630;-71
2021/01/07 02:16:57;;;;;;;4.03;2.20;;;1.80;1.00;;;;;;4943946;28;20290;-70
2021/01/07 02:19:25;;;;;;;2.50;2.28;;;1.90;1.00;;;;;;4949383;28;20223;-71
2021/01/07 02:21:53;;;;;;;2.28;2.08;;;1.80;1.00;;;;;;4946125;28;20218;-72
2021/01/07 02:24:20;;;;;;;2.50;2.25;;;1.90;1.00;;;;;;4960652;28;20594;-71
2021/01/07 02:26:47;;;;;;;2.10;1.95;;;1.90;1.00;;;;;;4947626;28;20237;-71
2021/01/07 02:29:14;;;;;;;2.08;1.92;;;1.80;1.00;;;;;;4947875;28;20624;-71
2021/01/07 02:31:42;;;;;;;1.90;1.80;;;1.70;1.00;;;;;;4958754;28;20632;-71
2021/01/07 02:34:09;;;;;;;2.50;2.10;;;1.60;1.00;;;;;;4947439;28;20289;-72
2021/01/07 02:36:36;;;;;;;2.40;1.90;;;1.70;1.00;;;;;;4949581;28;20916;-71
2021/01/07 02:39:04;;;;;;;2.90;1.90;;;1.80;1.00;;;;;;4944294;28;20268;-73
2021/01/07 02:41:32;;;;;;;1.85;1.75;;;1.90;1.00;;;;;;4951370;28;20221;-70
2021/01/07 02:43:59;;;;;;;1.73;1.60;;;1.90;1.00;;;;;;4948798;28;20228;-72
2021/01/07 02:46:26;;;;;;;1.90;1.80;;;2.00;1.00;;;;;;4946628;28;20227;-71
2021/01/07 02:48:53;;;;;;;1.95;1.60;;;2.00;1.00;;;;;;4951188;28;20221;-72
2021/01/07 02:51:20;;;;;;;2.38;2.25;;;2.00;1.00;;;;;;4947256;28;20483;-71
2021/01/07 02:53:47;;;;;;;2.67;2.47;;;1.90;1.00;;;;;;4946078;28;20650;-73
2021/01/07 02:56:15;;;;;;;2.10;1.90;;;1.70;1.00;;;;;;4949952;28;20215;-71
2021/01/07 02:58:42;;;;;;;2.70;2.25;;;1.80;1.00;;;;;;4947925;28;20242;-71
2021/01/07 03:01:09;;;;;;;2.33;1.73;;;1.90;1.00;;;;;;4949060;28;20240;-73
2021/01/07 03:03:36;;;;;;;2.60;2.17;;;1.90;1.00;;;;;;4959991;28;20225;-71
2021/01/07 03:06:04;;;;;;;2.40;2.20;;;1.80;1.00;;;;;;4948327;28;20288;-71
2021/01/07 03:08:31;;;;;;;2.22;2.08;;;1.90;1.00;;;;;;4944128;28;20689;-71
2021/01/07 03:10:58;;;;;;;2.05;1.85;;;2.10;1.00;;;;;;4947279;28;20219;-74
2021/01/07 03:13:26;;;;;;;2.67;2.22;;;2.20;1.00;;;;;;4951288;28;20231;-72
2021/01/07 03:15:53;;;;;;;2.65;2.03;;;2.20;1.00;;;;;;4953872;28;20234;-71
2021/01/07 03:18:20;;;;;;;2.10;2.00;;;2.10;1.00;;;;;;4952133;28;20295;-73
2021/01/07 03:20:47;;;;;;;2.30;2.05;;;2.00;1.00;;;;;;4947109;28;20205;-72
2021/01/07 03:23:14;;;;;;;2.67;2.47;;;1.90;1.00;;;;;;4950849;28;20233;-73
2021/01/07 03:25:42;;;;;;;3.15;2.58;;;2.00;1.00;;;;;;4950022;28;20618;-72
2021/01/07 03:28:09;;;;;;;3.45;2.70;;;2.00;1.00;;;;;;4947195;28;20282;-71
2021/01/07 03:30:37;;;;;;;2.20;2.00;;;2.00;1.00;;;;;;4950305;28;20860;-72
2021/01/07 03:33:04;;;;;;;2.55;2.35;;;2.00;1.00;;;;;;4949960;28;20220;-71
2021/01/07 03:35:32;;;;;;;2.90;2.28;;;1.90;1.00;;;;;;4945031;28;20263;-72
2021/01/07 03:38:00;;;;;;;2.35;2.08;;;1.90;1.00;;;;;;4949328;28;20300;-75
2021/01/07 03:40:28;;;;;;;2.60;2.40;;;1.80;1.00;;;;;;4950746;28;20210;-72
2021/01/07 03:42:55;;;;;;;3.20;2.90;;;1.80;1.00;;;;;;4948371;28;20711;-73
2021/01/07 03:45:22;;;;;;;2.83;2.50;;;1.80;1.00;;;;;;4947480;28;20206;-72
2021/01/07 03:47:50;;;;;;;2.97;2.65;;;2.00;1.00;;;;;;4961095;28;20660;-72
2021/01/07 03:50:17;;;;;;;4.65;4.25;;;2.10;1.00;;;;;;4951068;28;20447;-72
2021/01/07 03:52:44;;;;;;;3.85;3.45;;;2.20;1.00;;;;;;4949375;28;20230;-72
2021/01/07 03:55:12;;;;;;;2.92;2.65;;;2.30;1.00;;;;;;4946889;28;20217;-72
2021/01/07 03:57:39;;;;;;;3.75;3.00;;;2.30;1.00;;;;;;4949580;28;20214;-71
2021/01/07 04:00:07;;;;;;;4.95;3.50;;;2.30;1.00;;;;;;4942296;28;20208;-73
2021/01/07 04:02:34;;;;;;;3.55;2.95;;;2.30;1.00;;;;;;4950837;28;20226;-72
2021/01/07 04:05:02;;;;;;;4.15;3.78;;;2.10;1.00;;;;;;4946840;28;20220;-70
2021/01/07 04:07:29;;;;;;;2.83;2.63;;;2.00;1.00;;;;;;4950273;28;20900;-71
2021/01/07 04:09:56;;;;;;;3.40;3.20;;;1.90;1.00;;;;;;4943738;28;20309;-71
2021/01/07 04:12:24;;;;;;;4.97;4.07;;;2.00;1.00;;;;;;4945070;28;20230;-72
2021/01/07 04:15:01;;;;;;;5.45;4.43;;;2.00;1.00;;;;;;4947825;28;20215;-74
2021/01/07 04:17:28;;;;;;;3.88;3.22;;;1.90;1.00;;;;;;4953194;28;20210;-72
2021/01/07 04:19:56;;;;;;;5.03;3.90;;;1.90;1.00;;;;;;4952295;28;20211;-72
2021/01/07 04:22:25;;;;;;;4.32;3.85;;;2.00;1.00;;;;;;4951439;28;20794;-72
2021/01/07 04:24:52;;;;;;;5.00;4.28;;;2.00;1.00;;;;;;4951583;28;20309;-71
2021/01/07 04:27:20;;;;;;;4.85;4.07;;;1.90;1.00;;;;;;4953159;28;20230;-72
2021/01/07 04:29:47;;;;;;;4.88;3.63;;;1.90;1.00;;;;;;4951167;28;20211;-72
2021/01/07 04:32:14;;;;;;;4.82;4.43;;;2.00;1.00;;;;;;4959137;28;20241;-72
2021/01/07 04:34:41;;;;;;;6.05;4.35;;;2.00;1.00;;;;;;4950050;28;20668;-71
2021/01/07 04:37:08;;;;;;;8.15;5.20;;;1.80;1.00;;;;;;4950913;28;20259;-72
2021/01/07 04:39:36;;;;;;;5.38;4.47;;;1.80;1.00;;;;;;4946737;28;20734;-72
2021/01/07 04:42:03;;;;;;;5.55;4.07;;;1.80;1.00;;;;;;4950523;28;20212;-73
2021/01/07 04:44:31;;;;;;;7.28;4.20;;;1.90;1.00;;;;;;4949802;28;20215;-72
2021/01/07 04:46:59;;;;;;;6.32;4.38;;;1.80;1.00;;;;;;4950241;28;20232;-72
2021/01/07 04:49:26;;;;;;;6.40;5.25;;;1.80;1.00;;;;;;4950015;28;20229;-72
2021/01/07 04:51:53;;;;;;;5.85;5.30;;;1.90;1.00;;;;;;4949541;28;20215;-72
2021/01/07 04:54:21;;;;;;;7.05;5.10;;;1.80;1.00;;;;;;4946512;28;20626;-73
2021/01/07 04:56:49;;;;;;;6.20;4.72;;;1.90;1.00;;;;;;4950733;28;20206;-71
2021/01/07 04:59:16;;;;;;;7.00;6.18;;;1.80;1.00;;;;;;4952016;28;20213;-74
2021/01/07 05:01:45;;;;;;;5.15;4.43;;;1.90;1.00;;;;;;4955238;28;20281;-74
2021/01/07 05:04:15;;;;;;;7.95;5.22;;;1.90;1.00;;;;;;4949631;28;20946;-71
2021/01/07 05:06:42;;;;;;;7.32;5.38;;;1.90;1.00;;;;;;4965587;28;20206;-72
2021/01/07 05:09:09;;;;;;;7.85;5.22;;;1.90;1.00;;;;;;4950593;28;20216;-72
2021/01/07 05:11:37;;;;;;;5.72;5.03;;;1.90;1.00;;;;;;4954001;28;20225;-73
2021/01/07 05:14:06;;;;;;;9.90;6.50;;;2.00;1.00;;;;;;4949260;28;20249;-71
2021/01/07 05:16:34;;;;;;;7.15;5.32;;;2.00;1.00;;;;;;4957724;28;20243;-73
2021/01/07 05:19:05;;;;;;;7.35;5.57;;;2.00;1.00;;;;;;4952174;28;20204;-71
2021/01/07 05:21:34;;;;;;;10.48;6.53;;;1.90;1.00;;;;;;4951225;28;20382;-72
2021/01/07 05:24:03;;;;;;;8.68;6.45;;;1.90;1.00;;;;;;4950587;28;20271;-72
2021/01/07 05:26:30;;;;;;;6.95;5.57;;;1.70;1.00;;;;;;4950981;28;20281;-74
2021/01/07 05:28:59;;;;;;;7.85;5.57;;;1.70;1.00;;;;;;4955988;28;20235;-71
2021/01/07 05:31:28;;;;;;;7.38;5.25;;;1.60;1.00;;;;;;4950588;28;20211;-72
2021/01/07 05:33:56;;;;;;;8.27;5.90;;;1.60;1.00;;;;;;4967937;28;20235;-73
2021/01/07 05:36:25;;;;;;;8.35;6.38;;;1.60;1.00;;;;;;4951338;28;20328;-72
2021/01/07 05:38:54;;;;;;;6.93;5.25;;;1.60;1.00;;;;;;4952814;28;20290;-72
2021/01/07 05:41:24;;;;;;;8.85;5.95;;;1.50;1.00;;;;;;4952957;28;20250;-73
2021/01/07 05:44:01;;;;;;;7.60;5.97;;;1.60;1.00;;;;;;4952673;28;20242;-72
2021/01/07 05:46:30;;;;;;;9.88;6.30;;;1.70;1.00;;;;;;4954933;28;20273;-73
2021/01/07 05:48:58;;;;;;;7.45;6.13;;;1.70;1.00;;;;;;4952374;28;20317;-72
2021/01/07 05:51:26;;;;;;;9.88;6.72;;;1.70;1.00;;;;;;4953164;28;20229;-73
2021/01/07 05:53:54;;;;;;;9.95;7.07;;;1.80;1.00;;;;;;4950176;28;20232;-72
2021/01/07 05:56:22;;;;;;;10.48;6.32;;;1.80;1.00;;;;;;4956841;28;20205;-72
2021/01/07 05:58:51;;;;;;;8.55;6.47;;;1.70;1.00;;;;;;4951167;28;20206;-73
2021/01/07 06:01:19;;;;;;;9.50;7.35;;;1.70;1.00;;;;;;4944707;28;20225;-72
2021/01/07 06:03:49;;;;;;;8.80;6.47;;;1.70;1.00;;;;;;4951190;28;20254;-72
2021/01/07 06:06:18;;;;;;;8.35;6.55;;;1.60;1.00;;;;;;4948885;28;20210;-72
2021/01/07 06:08:49;;;;;;;8.70;6.57;;;1.60;1.00;;;;;;4950238;28;20223;-71
2021/01/07 06:11:18;;;;;;;10.00;6.80;;;1.60;1.00;;;;;;4940780;28;20741;-73
2021/01/07 06:13:47;;;;;;;10.18;7.28;;;1.70;1.00;;;;;;4948727;28;20238;-72
2021/01/07 06:16:18;;;;;;;9.45;6.53;;;1.90;1.00;;;;;;4949070;28;20229;-72
2021/01/07 06:18:47;;;;;;;10.30;6.22;;;1.90;1.00;;;;;;4948478;28;20208;-72
2021/01/07 06:21:15;;;;;;;10.25;6.78;;;1.80;1.00;;;;;;4949333;28;20202;-74
2021/01/07 06:23:44;;;;;;;11.55;6.60;;;1.80;1.00;;;;;;4949064;28;20236;-72
2021/01/07 06:26:25;;;;;;;9.73;6.72;;;1.80;1.00;;;;;;4949642;28;20218;-72
2021/01/07 06:28:57;;;;;;;9.57;6.53;;;1.70;1.00;;;;;;4945756;28;20324;-72
2021/01/07 06:31:43;;;;;;;7.88;6.35;;;1.90;1.00;;;;;;4947197;28;20253;-74
2021/01/07 06:34:13;;;;;;;7.85;6.10;;;2.00;1.00;;;;;;4951666;28;20699;-72
2021/01/07 06:36:45;;;;;;;8.88;7.22;;;1.90;1.00;;;;;;4961262;28;20559;-72
2021/01/07 06:39:12;;;;;;;11.13;7.57;;;1.90;1.00;;;;;;4948687;28;20246;-72
2021/01/07 06:41:39;;;;;;;9.73;6.75;;;1.90;1.00;;;;;;4957058;28;20630;-72
2021/01/07 06:44:07;;;;;;;9.45;7.43;;;2.10;1.00;;;;;;4949156;28;20251;-72
2021/01/07 06:46:39;;;;;;;9.65;6.45;;;2.00;1.00;;;;;;4949359;28;20631;-72
2021/01/07 06:49:24;;;;;;;12.80;7.97;;;1.80;1.00;;;;;;4947478;28;20290;-73
2021/01/07 06:51:59;;;;;;;12.15;7.57;;;2.00;1.00;;;;;;4950387;28;20213;-72
2021/01/07 06:54:32;;;;;;;10.55;7.75;;;1.90;1.00;;;;;;4950758;28;20243;-72
2021/01/07 06:57:02;;;;;;;8.77;6.35;;;1.80;1.00;;;;;;4950471;28;20674;-73
2021/01/07 06:59:29;;;;;;;6.97;5.82;;;1.70;1.00;;;;;;4949483;28;20224;-72
2021/01/07 07:01:58;;;;;;;9.20;6.80;;;1.70;1.00;;;;;;4938371;28;20270;-72
2021/01/07 07:04:28;;;;;;;12.02;7.38;;;1.60;1.00;;;;;;4943338;28;20336;-74
2021/01/07 07:07:00;;;;;;;8.23;6.35;;;1.60;1.00;;;;;;4945510;28;20233;-70
2021/01/07 07:09:32;;;;;;;7.68;6.18;;;1.50;1.00;;;;;;4941403;28;20263;-72
2021/01/07 07:11:59;;;;;;;10.45;6.75;;;1.60;1.00;;;;;;4958052;28;20207;-72
2021/01/07 07:14:30;;;;;;;8.43;5.63;;;1.60;1.00;;;;;;4953492;28;20721;-72
2021/01/07 07:16:58;;;;;;;8.35;6.65;;;1.60;1.00;;;;;;4958668;28;20716;-72
2021/01/07 07:19:29;;;;;;;13.70;7.40;;;1.60;1.00;;;;;;4950874;28;20305;-72
2021/01/07 07:21:57;;;;;;;13.88;8.23;;;1.60;1.00;;;;;;4952641;28;20212;-72
2021/01/07 07:24:35;;;;;;;9.57;6.97;;;1.60;1.00;;;;;;4952568;28;20289;-72
2021/01/07 07:27:05;;;;;;;11.95;6.82;;;1.60;1.00;;;;;;4968018;28;20272;-73
2021/01/07 07:29:34;;;;;;;10.50;7.60;;;1.60;1.00;;;;;;4959475;28;20215;-72
2021/01/07 07:32:19;;;;;;;10.05;7.57;;;1.60;1.00;;;;;;4954587;28;20252;-72
2021/01/07 07:34:48;;;;;;;10.05;7.22;;;1.60;1.00;;;;;;4945134;28;20231;-71
2021/01/07 07:37:20;;;;;;;9.82;7.47;;;1.60;1.00;;;;;;4945013;29;20251;-73
2021/01/07 07:39:59;;;;;;;11.95;7.30;;;1.70;1.00;;;;;;4945431;28;20840;-73
2021/01/07 07:42:28;;;;;;;9.50;6.65;;;1.70;1.00;;;;;;4938375;28;20328;-74
2021/01/07 07:44:57;;;;;;;9.98;8.20;;;1.80;1.00;;;;;;4955575;28;20207;-71
2021/01/07 07:47:25;;;;;;;9.18;7.20;;;1.80;1.00;;;;;;4960753;28;20649;-73
2021/01/07 07:49:56;;;;;;;9.00;7.07;;;1.90;1.00;;;;;;4948252;28;20324;-73
2021/01/07 07:52:24;;;;;;;9.32;7.20;;;2.10;1.00;;;;;;4953350;28;20752;-74
2021/01/07 07:55:01;;;;;;;10.43;6.68;;;2.20;1.00;;;;;;4949541;28;20206;-70
2021/01/07 07:57:29;;;;;;;8.43;6.30;;;2.20;1.00;;;;;;4948881;28;20266;-72
2021/01/07 08:00:14;;;;;;;13.40;7.20;;;2.20;1.00;;;;;;4945772;28;20271;-71
2021/01/07 08:02:43;;;;;;;9.80;7.43;;;2.30;1.00;;;;;;4940355;28;20230;-71
2021/01/07 08:05:24;;;;;;;11.43;8.30;;;2.40;1.00;;;;;;4941798;28;20214;-72
2021/01/07 08:07:52;;;;;;;11.50;7.70;;;2.20;1.00;;;;;;4948580;28;20234;-71
2021/01/07 08:10:19;;;;;;;9.75;7.20;;;2.20;1.00;;;;;;4947210;28;20322;-72
2021/01/07 08:12:47;;;;;;;12.20;8.55;;;2.10;1.00;;;;;;4951460;28;20231;-73
2021/01/07 08:15:26;;;;;;;9.00;7.00;;;2.20;1.00;;;;;;4952823;28;20232;-72
2021/01/07 08:17:54;;;;;;;10.07;8.50;;;2.40;1.00;;;;;;4949907;28;20257;-72
2021/01/07 08:20:26;;;;;;;10.50;7.30;;;2.50;1.00;;;;;;4947398;28;20140;-71
2021/01/07 08:22:54;;;;;;;10.68;6.55;;;2.70;1.00;;;;;;4949933;28;20275;-72
2021/01/07 08:25:25;;;;;;;8.75;6.95;;;2.80;1.00;;;;;;4952849;28;20222;-71
2021/01/07 08:27:59;;;;;;;8.90;7.20;;;2.80;1.00;;;;;;4959985;28;20231;-70
2021/01/07 08:30:27;;;;;;;10.90;7.53;;;2.80;1.00;;;;;;4950362;28;20215;-71
2021/01/07 08:32:59;;;;;;;10.50;7.05;;;2.80;1.00;;;;;;4960055;28;20596;-71
2021/01/07 08:35:28;;;;;;;11.57;7.35;;;2.80;1.00;;;;;;4952399;28;20216;-73
2021/01/07 08:37:55;;;;;;;14.20;8.38;;;2.70;1.00;;;;;;4959248;28;20285;-72
2021/01/07 08:40:22;;;;;;;10.75;8.32;;;2.70;1.00;;;;;;4946421;28;20975;-70
2021/01/07 08:42:50;;;;;;;9.48;7.22;;;2.70;1.00;;;;;;4963557;28;20497;-70
2021/01/07 08:45:17;;;;;;;14.63;8.68;;;2.70;1.00;;;;;;4950038;28;20202;-70
2021/01/07 08:47:44;;;;;;;10.05;6.38;;;2.70;1.00;;;;;;4957638;28;20227;-72
2021/01/07 08:50:14;;;;;;;12.03;9.20;;;2.80;1.00;;;;;;4942989;28;20918;-70
2021/01/07 08:52:52;;;;;;;13.00;8.10;;;2.70;1.00;;;;;;4950225;28;20496;-70
2021/01/07 08:55:21;;;;;;;9.00;6.97;;;2.70;1.00;;;;;;4952237;28;20216;-72
2021/01/07 08:57:48;;;;;;;10.57;7.95;;;2.40;1.00;;;;;;4955294;28;20237;-74
2021/01/07 09:00:17;;;;;;;9.65;7.32;;;2.40;1.00;;;;;;4959814;28;20563;-71
2021/01/07 09:02:44;;;;;;;9.50;7.88;;;2.50;1.00;;;;;;4948198;28;20859;-71
2021/01/07 09:05:12;;;;;;;12.02;9.15;;;2.60;1.00;;;;;;4952422;28;20217;-71
2021/01/07 09:07:40;;;;;;;13.65;8.60;;;2.70;1.00;;;;;;4952850;28;20223;-70
2021/01/07 09:10:10;;;;;;;11.57;7.95;;;2.70;1.00;;;;;;4948742;28;20452;-72
2021/01/07 09:12:37;;;;;;;8.73;6.82;;;2.80;1.00;;;;;;4947798;28;20242;-71
2021/01/07 09:15:07;;;;;;;11.63;7.60;;;2.90;1.00;;;;;;4948267;29;20204;-70
2021/01/07 09:17:42;;;;;;;11.15;7.03;;;3.00;1.00;;;;;;4948687;28;20233;-71
2021/01/07 09:20:11;;;;;;;9.85;7.00;;;3.10;99.90;;;;;;4948968;28;20210;-71
2021/01/07 09:22:39;;;;;;;11.75;7.85;;;3.10;99.90;;;;;;4965556;28;20242;-71
2021/01/07 09:25:08;;;;;;;9.05;6.97;;;3.10;99.90;;;;;;4952562;28;20218;-70
2021/01/07 09:27:36;;;;;;;10.13;7.67;;;3.20;99.90;;;;;;4955568;28;20492;-71
2021/01/07 09:30:05;;;;;;;10.65;7.85;;;3.30;99.90;;;;;;4950295;28;20569;-70
2021/01/07 09:32:32;;;;;;;10.68;7.82;;;3.30;99.90;;;;;;4943080;28;20353;-72
2021/01/07 09:34:59;;;;;;;7.97;6.68;;;3.30;23.60;;;;;;4948052;28;20221;-71
2021/01/07 09:37:26;;;;;;;8.68;7.15;;;3.10;99.90;;;;;;4950084;28;20218;-71
2021/01/07 09:39:55;;;;;;;9.10;7.28;;;3.10;99.90;;;;;;4944871;28;20216;-72
2021/01/07 09:42:25;;;;;;;10.48;6.75;;;3.20;99.90;;;;;;4942556;28;20272;-71
2021/01/07 09:44:52;;;;;;;10.40;7.63;;;3.40;99.90;;;;;;4955532;28;20212;-72
2021/01/07 09:47:19;;;;;;;11.32;7.80;;;3.50;99.90;;;;;;4946822;28;20223;-71
2021/01/07 09:49:47;;;;;;;14.88;8.82;;;3.50;17.30;;;;;;4963725;28;20248;-71
2021/01/07 09:52:14;;;;;;;10.95;7.53;;;3.50;1.00;;;;;;4947177;28;21055;-71
2021/01/07 09:54:42;;;;;;;12.13;7.25;;;3.40;1.00;;;;;;4942830;28;20225;-71
2021/01/07 09:57:09;;;;;;;9.50;7.53;;;3.30;1.00;;;;;;4940589;28;20723;-72
2021/01/07 09:59:38;;;;;;;9.73;7.75;;;3.20;1.00;;;;;;4938279;28;20242;-72
2021/01/07 10:02:06;;;;;;;10.73;7.15;;;3.30;99.90;;;;;;4945773;28;20939;-75
2021/01/07 10:04:34;;;;;;;8.90;6.97;;;3.50;21.70;;;;;;4947566;29;20303;-72
2021/01/07 10:07:01;;;;;;;8.55;6.38;;;3.60;99.90;;;;;;4957228;28;20216;-72
2021/01/07 10:09:29;;;;;;;10.25;6.60;;;3.40;1.00;;;;;;4949141;29;20242;-72
2021/01/07 10:11:57;;;;;;;9.88;7.25;;;3.30;99.90;;;;;;4946796;28;20209;-72
2021/01/07 10:14:26;;;;;;;9.82;7.10;;;3.40;1.00;;;;;;4946292;28;21284;-72
2021/01/07 10:16:55;;;;;;;8.48;6.55;;;3.50;1.00;;;;;;4946990;28;20219;-71
2021/01/07 10:19:24;;;;;;;9.30;7.28;;;3.60;1.00;;;;;;4942214;28;20219;-73
2021/01/07 10:21:58;;;;;;;9.45;7.07;;;3.60;99.90;;;;;;4945774;29;20218;-74
2021/01/07 10:24:26;;;;;;;13.13;8.10;;;3.60;99.90;;;;;;4943859;28;20240;-72
2021/01/07 10:26:58;;;;;;;11.63;7.45;;;3.50;99.90;;;;;;4950880;28;20218;-72
2021/01/07 10:29:28;;;;;;;11.93;8.02;;;3.40;1.00;;;;;;4943643;28;20253;-71
2021/01/07 10:31:59;;;;;;;11.13;7.10;;;3.50;99.90;;;;;;4947345;28;20703;-72
2021/01/07 10:34:28;;;;;;;8.98;6.47;;;3.50;1.00;;;;;;4949703;28;20245;-72
2021/01/07 10:36:57;;;;;;;9.70;6.88;;;3.60;1.00;;;;;;4948596;28;20210;-72
2021/01/07 10:39:26;;;;;;;10.50;8.00;;;3.70;99.90;;;;;;4947697;28;20214;-71
2021/01/07 10:41:57;;;;;;;8.27;6.55;;;3.60;99.90;;;;;;4950763;28;20219;-73
2021/01/07 10:44:26;;;;;;;9.98;6.80;;;3.60;99.90;;;;;;4945110;28;20735;-72
2021/01/07 10:46:59;;;;;;;9.70;7.00;;;3.60;56.60;;;;;;4949965;28;20216;-72
2021/01/07 10:49:28;;;;;;;8.40;6.18;;;3.70;99.90;;;;;;4948700;28;21081;-70
2021/01/07 10:52:27;;;;;;;8.35;6.28;;;3.70;99.90;;;;;;4943768;28;20311;-72
2021/01/07 10:55:08;;;;;;;8.32;6.72;;;3.60;99.90;;;;;;4946098;28;20210;-72
2021/01/07 10:58:20;;;;;;;12.38;7.30;;;3.80;99.90;;;;;;4948385;28;20271;-75
2021/01/07 11:01:01;;;;;;;8.68;6.78;;;4.00;1.00;;;;;;4897286;29;20233;-72
2021/01/07 11:03:43;;;;;;;9.40;7.93;;;4.20;1.00;;;;;;4936483;28;20716;-73
2021/01/07 11:06:13;;;;;;;9.25;7.63;;;3.90;99.90;;;;;;4956145;28;20203;-74
2021/01/07 11:08:48;;;;;;;8.45;6.72;;;3.70;99.90;;;;;;4942067;29;20272;-71
2021/01/07 11:11:21;;;;;;;6.70;6.00;;;3.50;99.90;;;;;;4944657;28;20227;-73
2021/01/07 11:13:55;;;;;;;7.60;6.65;;;3.50;1.00;;;;;;4955442;28;20237;-70
2021/01/07 11:16:27;;;;;;;9.40;7.43;;;3.70;1.00;;;;;;4941084;28;20693;-71
2021/01/07 11:19:00;;;;;;;11.10;8.20;;;4.00;99.90;;;;;;4943239;28;20291;-72
2021/01/07 11:21:52;;;;;;;5.43;4.68;;;4.10;1.00;;;;;;4943693;28;20221;-71
2021/01/07 11:24:20;;;;;;;8.60;5.43;;;4.00;99.90;;;;;;4948146;28;20231;-71
2021/01/07 11:26:49;;;;;;;7.10;5.68;;;4.30;1.00;;;;;;4945459;28;20264;-71
2021/01/07 11:29:17;;;;;;;10.35;7.07;;;4.60;99.90;;;;;;4942222;28;20308;-71
2021/01/07 11:31:53;;;;;;;8.80;6.30;;;4.70;66.60;;;;;;4941250;28;20301;-72
2021/01/07 11:34:21;;;;;;;6.30;5.22;;;4.90;1.00;;;;;;4943255;28;20239;-72
2021/01/07 11:36:54;;;;;;;7.95;5.25;;;4.80;1.00;;;;;;4945101;29;20212;-72
2021/01/07 11:39:25;;;;;;;6.65;5.40;;;4.50;1.00;;;;;;4940772;28;20712;-70
2021/01/07 11:42:05;;;;;;;5.70;5.20;;;4.30;99.90;;;;;;4954082;28;20212;-70
2021/01/07 11:44:42;;;;;;;7.18;5.20;;;4.30;99.90;;;;;;4942173;28;20240;-71
2021/01/07 11:47:11;;;;;;;6.00;4.65;;;4.30;99.90;;;;;;4957760;28;20242;-73
2021/01/07 11:49:41;;;;;;;7.25;6.00;;;3.90;99.90;;;;;;4945887;28;20773;-71
2021/01/07 11:52:10;;;;;;;8.13;6.20;;;3.80;1.00;;;;;;4942387;28;20486;-71
2021/01/07 11:54:39;;;;;;;7.43;6.10;;;3.90;99.90;;;;;;4942897;28;20210;-71
2021/01/07 11:57:08;;;;;;;7.13;6.18;;;3.90;1.00;;;;;;4946369;28;20220;-70
2021/01/07 11:59:38;;;;;;;7.03;5.40;;;4.00;1.00;;;;;;4943187;28;20272;-68
2021/01/07 12:02:09;;;;;;;8.23;4.82;;;3.90;99.90;;;;;;4942911;29;20696;-71
2021/01/07 12:04:37;;;;;;;5.75;5.15;;;3.70;99.90;;;;;;4942370;28;20225;-70
2021/01/07 12:07:22;;;;;;;9.88;6.07;;;3.70;99.90;;;;;;4946752;28;20673;-70
2021/01/07 12:09:50;;;;;;;8.93;6.70;;;3.70;99.90;;;;;;4932685;28;20241;-70
2021/01/07 12:12:17;;;;;;;10.30;7.18;;;3.70;99.90;;;;;;4940826;28;20287;-70
2021/01/07 12:14:49;;;;;;;5.90;5.05;;;3.90;91.20;;;;;;4940648;28;20213;-71
2021/01/07 12:17:16;;;;;;;8.90;5.88;;;3.80;1.00;;;;;;4940398;28;20219;-70
2021/01/07 12:19:44;;;;;;;9.45;7.32;;;3.90;99.90;;;;;;4939354;28;20474;-71
2021/01/07 12:22:15;;;;;;;7.05;6.28;;;3.80;1.00;;;;;;4945198;29;20218;-70
2021/01/07 12:25:02;;;;;;;9.18;6.45;;;3.70;1.00;;;;;;4944491;28;20232;-71
2021/01/07 12:27:29;;;;;;;7.88;5.50;;;3.70;99.90;;;;;;4942918;28;20207;-71
2021/01/07 12:29:58;;;;;;;9.45;6.35;;;3.70;99.90;;;;;;4943867;28;20637;-70
2021/01/07 12:32:30;;;;;;;6.95;5.25;;;3.70;99.90;;;;;;4941443;28;20625;-70
2021/01/07 12:35:08;;;;;;;8.60;5.90;;;3.70;99.90;;;;;;4944447;28;20275;-69
2021/01/07 12:37:43;;;;;;;8.65;5.63;;;3.60;94.30;;;;;;4946314;28;20219;-69
2021/01/07 12:40:17;;;;;;;8.18;6.47;;;3.60;1.00;;;;;;4943371;28;20205;-69
2021/01/07 12:42:45;;;;;;;7.45;5.38;;;3.30;1.00;;;;;;4948015;28;20280;-70
2021/01/07 12:45:14;;;;;;;8.15;6.50;;;3.40;99.90;;;;;;4948236;28;20298;-69
2021/01/07 12:47:42;;;;;;;9.57;6.10;;;3.30;99.90;;;;;;4953473;28;20213;-69
2021/01/07 12:50:11;;;;;;;5.35;4.82;;;3.10;13.20;;;;;;4955470;28;20273;-70
2021/01/07 12:52:39;;;;;;;8.02;6.30;;;2.90;99.90;;;;;;4949740;28;20243;-70
2021/01/07 12:55:09;;;;;;;8.40;6.30;;;3.10;1.00;;;;;;4946045;28;20688;-70
2021/01/07 12:57:44;;;;;;;8.93;6.60;;;3.20;1.00;;;;;;4950499;28;20199;-70
2021/01/07 13:00:15;;;;;;;10.00;6.75;;;3.10;18.40;;;;;;4943402;28;20213;-70
2021/01/07 13:02:48;;;;;;;9.35;6.82;;;3.10;99.90;;;;;;4944829;28;20240;-71
2021/01/07 13:05:22;;;;;;;8.15;7.25;;;3.00;99.90;;;;;;4946893;28;20221;-70
2021/01/07 13:07:54;;;;;;;8.15;6.50;;;2.80;99.90;;;;;;4948376;28;20206;-70
2021/01/07 13:10:22;;;;;;;6.72;5.97;;;2.70;99.90;;;;;;4945763;28;20236;-71
2021/01/07 13:12:53;;;;;;;9.15;6.53;;;2.70;99.90;;;;;;4954190;28;20301;-71
2021/01/07 13:15:21;;;;;;;10.50;7.55;;;2.70;99.90;;;;;;4947461;28;20221;-71